Time;durP1;ratioP1;P1;durP2;ratioP2;P2;SDS_P1;SDS_P2;PMS_P1;PMS_P2;Temp;Humidity;BMP_temperature;BMP_pressure;BME280_temperature;BME280_humidity;BME280_pressure;Samples;Min_cycle;Max_cycle;Signal;HPM_P1;HPM_P2
2023/03/06 00:01:47;;;;;;;;;;;;;;;16.41;41.21;92449.22;5080819;28;19934;-84
2023/03/06 00:04:13;;;;;;;;;;;;;;;16.40;41.27;92453.22;5073811;28;19920;-84
2023/03/06 00:06:38;;;;;;;;;;;;;;;16.41;41.25;92451.97;5083899;28;20475;-83
2023/03/06 00:09:03;;;;;;;;;;;;;;;16.42;40.93;92447.25;5060946;28;20296;-84
2023/03/06 00:11:29;;;;;;;;;;;;;;;16.41;40.98;92453.94;5075340;28;19960;-84
2023/03/06 00:13:54;;;;;;;;;;;;;;;16.42;41.41;92453.44;5079071;28;19963;-84
2023/03/06 00:16:19;;;;;;;;;;;;;;;16.42;41.25;92441.78;5060527;28;19928;-83
2023/03/06 00:18:46;;;;;;;;;;;;;;;16.41;41.28;92445.75;5076961;28;20304;-84
2023/03/06 00:21:11;;;;;;;;;;;;;;;16.41;40.93;92453.94;5068025;28;19966;-85
2023/03/06 00:23:37;;;;;;;;;;;;;;;16.40;41.33;92449.75;5059915;28;20441;-83
2023/03/06 00:26:02;;;;;;;;;;;;;;;16.40;41.21;92442.31;5063069;28;19924;-85
2023/03/06 00:28:29;;;;;;;;;;;;;;;16.40;40.92;92442.31;5060983;28;19931;-84
2023/03/06 00:30:55;;;;;;;;;;;;;;;16.41;41.28;92443.03;5049535;28;19931;-83
2023/03/06 00:33:20;;;;;;;;;;;;;;;16.43;40.92;92443.25;5051713;28;19928;-84
2023/03/06 00:35:45;;;;;;;;;;;;;;;16.41;41.06;92435.59;5067296;28;19924;-83
2023/03/06 00:38:10;;;;;;;;;;;;;;;16.40;41.02;92433.38;5052059;28;19959;-84
2023/03/06 00:40:36;;;;;;;;;;;;;;;16.41;41.06;92434.84;5065383;28;19924;-83
2023/03/06 00:43:01;;;;;;;;;;;;;;;16.40;41.26;92425.19;5044389;28;19932;-83
2023/03/06 00:45:26;;;;;;;;;;;;;;;16.41;41.18;92415.75;5051868;28;21085;-83
2023/03/06 00:47:54;;;;;;;;;;;;;;;16.42;40.96;92417.22;5087104;28;19924;-87
2023/03/06 00:50:19;;;;;;;;;;;;;;;16.42;41.06;92419.97;5065922;28;19928;-87
2023/03/06 00:52:45;;;;;;;;;;;;;;;16.42;40.99;92417.22;5068897;28;19931;-84
2023/03/06 00:55:10;;;;;;;;;;;;;;;16.41;41.27;92416.50;5068929;28;19985;-88
2023/03/06 00:57:35;;;;;;;;;;;;;;;16.42;41.32;92415.25;5051186;28;20377;-83
2023/03/06 01:00:01;;;;;;;;;;;;;;;16.40;41.38;92409.56;5054210;28;20003;-83
2023/03/06 01:02:26;;;;;;;;;;;;;;;16.41;40.92;92407.56;5065798;28;20450;-83
2023/03/06 01:04:51;;;;;;;;;;;;;;;16.40;40.92;92417.75;5052937;28;19927;-87
2023/03/06 01:07:16;;;;;;;;;;;;;;;16.40;41.09;92406.84;5042636;28;20258;-85
2023/03/06 01:09:42;;;;;;;;;;;;;;;16.40;41.03;92400.66;5050749;28;19928;-86
2023/03/06 01:12:07;;;;;;;;;;;;;;;16.40;41.05;92401.38;5073642;28;20408;-85
2023/03/06 01:14:32;;;;;;;;;;;;;;;16.41;41.06;92402.13;5063316;28;19931;-84
2023/03/06 01:16:58;;;;;;;;;;;;;;;16.40;41.02;92387.00;5069528;28;19924;-83
2023/03/06 01:19:23;;;;;;;;;;;;;;;16.40;41.41;92395.94;5051639;28;20344;-84
2023/03/06 01:21:48;;;;;;;;;;;;;;;16.40;41.40;92393.22;5043127;28;19977;-84
2023/03/06 01:24:13;;;;;;;;;;;;;;;16.40;41.04;92384.28;5040723;28;19920;-83
2023/03/06 01:26:39;;;;;;;;;;;;;;;16.41;40.98;92385.75;5049927;28;19931;-84
2023/03/06 01:29:05;;;;;;;;;;;;;;;16.42;41.21;92373.59;5061035;28;19979;-85
2023/03/06 01:31:30;;;;;;;;;;;;;;;16.41;41.35;92372.84;5048938;28;19927;-83
2023/03/06 01:33:55;;;;;;;;;;;;;;;16.40;41.07;92371.38;5087316;28;19946;-83
2023/03/06 01:36:20;;;;;;;;;;;;;;;16.41;41.46;92370.13;5063982;28;19960;-84
2023/03/06 01:38:46;;;;;;;;;;;;;;;16.39;40.99;92367.19;5060386;28;19924;-84
2023/03/06 01:41:14;;;;;;;;;;;;;;;16.39;41.01;92367.19;5067435;28;19930;-83
2023/03/06 01:43:41;;;;;;;;;;;;;;;16.41;41.14;92353.03;5048812;28;20011;-85
2023/03/06 01:46:15;;;;;;;;;;;;;;;16.40;41.16;92351.56;5061695;28;20461;-84
2023/03/06 01:48:40;;;;;;;;;;;;;;;16.41;41.15;92339.38;5060914;28;19923;-83
2023/03/06 01:51:06;;;;;;;;;;;;;;;16.41;41.47;92340.13;5066798;28;20369;-83
2023/03/06 01:53:31;;;;;;;;;;;;;;;16.40;41.28;92337.91;5068367;28;20005;-83
2023/03/06 01:55:56;;;;;;;;;;;;;;;16.39;41.27;92337.19;5068065;28;19928;-83
2023/03/06 01:58:21;;;;;;;;;;;;;;;16.39;41.39;92337.19;5058323;28;19939;-83
2023/03/06 02:00:47;;;;;;;;;;;;;;;16.39;41.63;92336.44;5033552;28;20370;-84
2023/03/06 02:03:15;;;;;;;;;;;;;;;16.38;41.27;92335.72;5044879;28;19924;-84
2023/03/06 02:05:41;;;;;;;;;;;;;;;16.39;41.07;92331.00;5051123;28;19924;-83
2023/03/06 02:08:07;;;;;;;;;;;;;;;16.40;41.15;92329.75;5040166;28;19928;-84
2023/03/06 02:10:32;;;;;;;;;;;;;;;16.40;41.14;92335.19;5043785;28;20022;-85
2023/03/06 02:12:57;;;;;;;;;;;;;;;16.41;41.42;92333.94;5029863;28;19924;-84
2023/03/06 02:15:23;;;;;;;;;;;;;;;16.37;41.22;92317.88;5024486;28;19936;-90
2023/03/06 02:17:48;;;;;;;;;;;;;;;16.39;41.07;92325.53;5034557;28;20240;-84
2023/03/06 02:20:15;;;;;;;;;;;;;;;16.40;41.32;92322.28;5027381;28;20418;-84
2023/03/06 02:22:59;;;;;;;;;;;;;;;16.41;41.30;92309.38;5037144;28;19925;-83
2023/03/06 02:25:41;;;;;;;;;;;;;;;16.40;41.22;92303.19;5037662;28;19936;-83
2023/03/06 02:28:07;;;;;;;;;;;;;;;16.40;41.50;92294.28;5038237;28;19925;-84
2023/03/06 02:30:32;;;;;;;;;;;;;;;16.39;41.42;92303.72;5040369;28;20337;-84
2023/03/06 02:32:57;;;;;;;;;;;;;;;16.38;41.35;92292.06;5031148;28;19931;-84
2023/03/06 02:35:24;;;;;;;;;;;;;;;16.38;41.37;92289.34;5047683;28;19929;-84
2023/03/06 02:37:49;;;;;;;;;;;;;;;16.39;41.50;92287.34;5027810;28;19936;-83
2023/03/06 02:40:14;;;;;;;;;;;;;;;16.37;41.28;92285.16;5047171;28;19924;-83
2023/03/06 02:42:46;;;;;;;;;;;;;;;16.38;42.15;92283.88;5042591;28;20412;-83
2023/03/06 02:45:11;;;;;;;;;;;;;;;16.40;41.27;92277.91;5042954;28;20312;-86
2023/03/06 02:47:36;;;;;;;;;;;;;;;16.39;41.20;92281.91;5040577;28;19932;-83
2023/03/06 02:50:01;;;;;;;;;;;;;;;16.39;41.60;92276.44;5065096;28;20341;-85
2023/03/06 02:52:27;;;;;;;;;;;;;;;16.38;41.30;92262.06;5044218;28;19924;-83
2023/03/06 02:54:52;;;;;;;;;;;;;;;16.40;41.70;92267.00;5065769;28;19928;-83
2023/03/06 02:57:17;;;;;;;;;;;;;;;16.38;41.38;92262.06;5023976;28;19959;-84
2023/03/06 02:59:42;;;;;;;;;;;;;;;16.39;41.47;92255.34;5036733;28;20252;-84
2023/03/06 03:02:08;;;;;;;;;;;;;;;16.39;41.46;92262.81;5041691;28;19924;-84
2023/03/06 03:04:33;;;;;;;;;;;;;;;16.36;41.18;92261.84;5047579;28;19944;-83
2023/03/06 03:06:58;;;;;;;;;;;;;;;16.37;41.24;92259.88;5028455;28;20015;-84
2023/03/06 03:09:23;;;;;;;;;;;;;;;16.39;41.21;92257.34;5029684;28;19924;-84
2023/03/06 03:11:49;;;;;;;;;;;;;;;16.40;41.32;92262.28;5047205;28;20308;-84
2023/03/06 03:14:15;;;;;;;;;;;;;;;16.41;41.36;92252.09;5046647;28;19964;-90
2023/03/06 03:16:40;;;;;;;;;;;;;;;16.40;41.42;92256.09;5051304;28;19924;-84
2023/03/06 03:19:06;;;;;;;;;;;;;;;16.39;41.44;92249.16;5042145;28;20366;-83
2023/03/06 03:21:31;;;;;;;;;;;;;;;16.40;41.45;92258.81;5050632;28;19995;-83
2023/03/06 03:23:57;;;;;;;;;;;;;;;16.39;41.49;92255.34;5025631;28;19929;-83
2023/03/06 03:26:22;;;;;;;;;;;;;;;16.40;41.81;92253.38;5043561;28;19939;-85
2023/03/06 03:28:47;;;;;;;;;;;;;;;16.38;41.27;92251.16;5033337;28;19929;-84
2023/03/06 03:31:13;;;;;;;;;;;;;;;16.39;41.30;92249.91;5028823;28;19956;-83
2023/03/06 03:33:38;;;;;;;;;;;;;;;16.36;41.56;92240.03;5058386;28;20360;-85
2023/03/06 03:36:04;;;;;;;;;;;;;;;16.38;41.34;92248.44;5046864;28;20007;-90
2023/03/06 03:38:29;;;;;;;;;;;;;;;16.35;41.55;92241.31;5059745;28;19936;-84
2023/03/06 03:40:54;;;;;;;;;;;;;;;16.36;41.55;92244.75;5030763;28;19924;-84
2023/03/06 03:43:19;;;;;;;;;;;;;;;16.38;41.40;92231.34;5029937;28;19936;-84
2023/03/06 03:45:45;;;;;;;;;;;;;;;16.38;41.47;92223.88;5047507;28;20271;-83
2023/03/06 03:48:10;;;;;;;;;;;;;;;16.40;41.42;92218.66;5044568;28;20217;-84
2023/03/06 03:50:35;;;;;;;;;;;;;;;16.37;41.48;92225.16;5050209;28;19933;-84
2023/03/06 03:53:00;;;;;;;;;;;;;;;16.37;41.50;92221.69;5049341;28;19991;-83
2023/03/06 03:55:26;;;;;;;;;;;;;;;16.37;41.66;92227.88;5050091;28;19924;-83
2023/03/06 03:57:51;;;;;;;;;;;;;;;16.35;41.31;92216.03;5024760;28;19925;-83
2023/03/06 04:00:17;;;;;;;;;;;;;;;16.35;41.73;92216.03;5036632;28;19979;-84
2023/03/06 04:02:42;;;;;;;;;;;;;;;16.35;41.58;92216.03;5028405;28;20437;-83
2023/03/06 04:05:08;;;;;;;;;;;;;;;16.36;41.34;92215.50;5020082;28;19921;-84
2023/03/06 04:07:33;;;;;;;;;;;;;;;16.38;41.34;92209.53;5048153;28;19928;-84
2023/03/06 04:09:59;;;;;;;;;;;;;;;16.39;41.40;92202.81;5079251;28;20424;-84
2023/03/06 04:12:24;;;;;;;;;;;;;;;16.38;41.29;92204.06;5063378;28;19935;-84
2023/03/06 04:14:49;;;;;;;;;;;;;;;16.36;41.27;92215.50;5091338;28;20143;-84
2023/03/06 04:17:14;;;;;;;;;;;;;;;16.36;41.54;92209.31;5065847;28;20002;-84
2023/03/06 04:19:40;;;;;;;;;;;;;;;16.34;41.32;92207.09;5070631;28;20245;-83
2023/03/06 04:22:05;;;;;;;;;;;;;;;16.35;41.30;92194.94;5083285;28;19920;-83
2023/03/06 04:24:30;;;;;;;;;;;;;;;16.35;41.28;92205.13;5088043;28;19923;-83
2023/03/06 04:26:55;;;;;;;;;;;;;;;16.36;41.59;92203.84;5064383;28;19971;-86
2023/03/06 04:29:20;;;;;;;;;;;;;;;16.37;41.50;92195.16;5077630;28;19924;-83
2023/03/06 04:31:46;;;;;;;;;;;;;;;16.35;41.31;92194.94;5108577;28;19972;-88
2023/03/06 04:34:11;;;;;;;;;;;;;;;16.34;41.38;92193.47;5089205;28;19920;-88
2023/03/06 04:36:36;;;;;;;;;;;;;;;16.36;41.39;92187.50;5083016;28;20381;-83
2023/03/06 04:39:02;;;;;;;;;;;;;;;16.36;41.28;92184.75;5075914;28;19947;-87
2023/03/06 04:41:27;;;;;;;;;;;;;;;16.36;41.43;92177.31;5075385;28;19924;-85
2023/03/06 04:43:52;;;;;;;;;;;;;;;16.34;41.25;92166.19;5083621;28;19936;-86
2023/03/06 04:46:17;;;;;;;;;;;;;;;16.33;41.54;92170.19;5085973;28;20270;-84
2023/03/06 04:48:43;;;;;;;;;;;;;;;16.34;41.47;92165.47;5087714;28;19927;-84
2023/03/06 04:51:09;;;;;;;;;;;;;;;16.35;41.26;92162.22;5060442;28;19999;-85
2023/03/06 04:53:35;;;;;;;;;;;;;;;16.34;41.31;92155.28;5089326;28;19923;-86
2023/03/06 04:56:00;;;;;;;;;;;;;;;16.34;41.37;92162.72;5070444;28;19930;-84
2023/03/06 04:58:25;;;;;;;;;;;;;;;16.34;41.53;92158.03;5067438;28;19928;-84
2023/03/06 05:00:51;;;;;;;;;;;;;;;16.32;41.67;92154.34;5074211;28;19926;-91
2023/03/06 05:03:16;;;;;;;;;;;;;;;16.34;41.43;92147.09;5089290;28;19924;-85
2023/03/06 05:05:41;;;;;;;;;;;;;;;16.34;41.64;92152.56;5073800;28;20208;-88
2023/03/06 05:08:06;;;;;;;;;;;;;;;16.34;41.43;92147.09;5101090;28;19931;-88
2023/03/06 05:10:32;;;;;;;;;;;;;;;16.33;41.91;92150.38;5047860;28;19920;-88
2023/03/06 05:12:57;;;;;;;;;;;;;;;16.33;41.62;92148.38;5051888;28;19924;-88
2023/03/06 05:15:22;;;;;;;;;;;;;;;16.35;41.32;92139.66;5042187;28;19932;-86
2023/03/06 05:17:47;;;;;;;;;;;;;;;16.34;41.33;92146.38;5082157;28;19931;-86
2023/03/06 05:20:13;;;;;;;;;;;;;;;16.32;41.96;92140.72;5046845;28;19919;-91
2023/03/06 05:22:38;;;;;;;;;;;;;;;16.31;41.55;92145.44;5071715;28;19928;-87
2023/03/06 05:25:04;;;;;;;;;;;;;;;16.33;41.70;92145.63;5089119;28;19935;-90
2023/03/06 05:27:29;;;;;;;;;;;;;;;16.37;41.82;92137.88;5045725;28;19979;-88
2023/03/06 05:29:54;;;;;;;;;;;;;;;16.37;41.69;92134.41;5063430;28;19950;-90
2023/03/06 05:32:20;;;;;;;;;;;;;;;16.42;41.99;92128.13;5050753;28;20002;-90
2023/03/06 05:34:45;;;;;;;;;;;;;;;16.42;43.17;92128.84;5070437;28;19928;-89
2023/03/06 05:37:10;;;;;;;;;;;;;;;16.46;42.15;92136.69;5061251;28;19928;-90
2023/03/06 05:39:36;;;;;;;;;;;;;;;16.45;42.52;92144.13;5049910;28;20054;-89
2023/03/06 05:42:01;;;;;;;;;;;;;;;16.48;41.77;92138.88;5066798;28;20400;-88
2023/03/06 05:44:32;;;;;;;;;;;;;;;16.50;41.56;92139.09;5044541;28;20067;-88
2023/03/06 05:46:58;;;;;;;;;;;;;;;16.52;41.87;92134.56;5043069;28;19924;-88
2023/03/06 05:49:23;;;;;;;;;;;;;;;16.46;42.32;92137.41;5044893;28;19927;-88
2023/03/06 05:51:48;;;;;;;;;;;;;;;16.44;42.14;92137.25;5050140;28;20354;-88
2023/03/06 05:54:14;;;;;;;;;;;;;;;16.39;40.74;92140.06;5068996;28;19968;-89
2023/03/06 05:56:39;;;;;;;;;;;;;;;16.38;41.14;92142.06;5065081;28;19924;-86
2023/03/06 05:59:04;;;;;;;;;;;;;;;16.39;41.40;92140.06;5070854;28;19924;-89
2023/03/06 06:01:30;;;;;;;;;;;;;;;16.41;41.93;92132.84;5050833;28;19928;-85
2023/03/06 06:03:55;;;;;;;;;;;;;;;16.42;41.42;92147.19;5068221;28;19955;-90
2023/03/06 06:06:35;;;;;;;;;;;;;;;16.40;41.53;92155.19;5085949;28;19983;-87
2023/03/06 06:09:00;;;;;;;;;;;;;;;16.39;41.15;92151.72;5043819;28;19925;-86
2023/03/06 06:11:26;;;;;;;;;;;;;;;16.37;40.13;92150.78;5052583;28;19951;-89
2023/03/06 06:13:51;;;;;;;;;;;;;;;16.36;40.70;92152.78;5036876;28;19924;-91
2023/03/06 06:16:17;;;;;;;;;;;;;;;16.39;41.12;92157.19;5043456;28;20615;-89
2023/03/06 06:18:43;;;;;;;;;;;;;;;16.36;40.77;92152.78;5057080;28;20397;-89
2023/03/06 06:21:08;;;;;;;;;;;;;;;16.39;41.12;92151.00;5045950;28;19924;-89
2023/03/06 06:23:34;;;;;;;;;;;;;;;16.41;41.61;92149.19;5047408;28;19986;-90
2023/03/06 06:25:59;;;;;;;;;;;;;;;16.43;41.58;92143.94;5048469;28;19928;-87
2023/03/06 06:28:25;;;;;;;;;;;;;;;16.43;41.30;92154.88;5050049;28;20249;-88
2023/03/06 06:30:50;;;;;;;;;;;;;;;16.45;41.24;92148.88;5071666;28;20262;-89
2023/03/06 06:33:16;;;;;;;;;;;;;;;16.43;41.57;92157.59;5048167;28;19924;-90
2023/03/06 06:35:41;;;;;;;;;;;;;;;16.42;41.31;92149.94;5050824;28;20265;-90
2023/03/06 06:38:06;;;;;;;;;;;;;;;16.41;41.28;92153.91;5062313;28;20334;-89
2023/03/06 06:40:31;;;;;;;;;;;;;;;16.43;41.32;92151.41;5065207;28;20028;-89
2023/03/06 06:42:57;;;;;;;;;;;;;;;16.43;41.04;92154.88;5043600;28;20266;-91
2023/03/06 06:45:22;;;;;;;;;;;;;;;16.44;41.60;92147.41;5043825;28;19933;-89
2023/03/06 06:47:48;;;;;;;;;;;;;;;16.45;41.23;92146.16;5066410;28;19982;-87
2023/03/06 06:50:13;;;;;;;;;;;;;;;16.46;41.44;92156.50;5079141;28;20318;-87
2023/03/06 06:52:38;;;;;;;;;;;;;;;16.45;40.76;92146.16;5054997;28;20141;-88
2023/03/06 06:55:03;;;;;;;;;;;;;;;16.45;40.46;92143.44;5052474;28;20305;-87
2023/03/06 06:57:29;;;;;;;;;;;;;;;16.44;40.55;92145.41;5046323;28;20007;-85
2023/03/06 07:00:00;;;;;;;;;;;;;;;16.45;40.85;92133.22;5069269;28;20022;-89
2023/03/06 07:02:25;;;;;;;;;;;;;;;16.45;40.59;92138.69;5048821;28;19955;-87
2023/03/06 07:04:51;;;;;;;;;;;;;;;16.46;41.10;92147.59;5087631;28;19932;-89
2023/03/06 07:07:16;;;;;;;;;;;;;;;16.48;41.32;92145.06;5046594;28;19932;-88
2023/03/06 07:09:41;;;;;;;;;;;;;;;16.50;41.55;92139.81;5045219;28;20053;-87
2023/03/06 07:12:07;;;;;;;;;;;;;;;16.49;41.81;92137.63;5039118;28;19935;-86
2023/03/06 07:14:33;;;;;;;;;;;;;;;16.47;41.55;92129.97;5044032;28;19928;-86
2023/03/06 07:16:58;;;;;;;;;;;;;;;16.48;42.07;92136.88;5038679;28;19931;-87
2023/03/06 07:19:23;;;;;;;;;;;;;;;16.50;41.60;92133.63;5035518;28;19933;-85
2023/03/06 07:21:49;;;;;;;;;;;;;;;16.54;41.91;92151.16;5043488;28;19921;-90
2023/03/06 07:24:14;;;;;;;;;;;;;;;16.57;41.12;92143.91;5043797;28;20489;-88
2023/03/06 07:26:39;;;;;;;;;;;;;;;16.55;41.00;92138.97;5034921;28;19978;-89
2023/03/06 07:29:05;;;;;;;;;;;;;;;16.55;41.25;92138.25;5046966;28;19925;-88
2023/03/06 07:31:30;;;;;;;;;;;;;;;16.56;40.90;92132.25;5045016;28;19920;-87
2023/03/06 07:33:55;;;;;;;;;;;;;;;16.56;40.95;92135.00;5055239;28;19978;-89
2023/03/06 07:36:21;;;;;;;;;;;;;;;16.57;40.78;92146.63;5031668;28;20487;-87
2023/03/06 07:38:46;;;;;;;;;;;;;;;16.56;40.65;92151.34;5036005;28;19935;-88
2023/03/06 07:41:12;;;;;;;;;;;;;;;16.57;41.43;92144.63;5023607;28;20283;-88
2023/03/06 07:43:40;;;;;;;;;;;;;;;16.59;40.91;92144.13;5031931;28;19924;-88
2023/03/06 07:46:05;;;;;;;;;;;;;;;16.57;41.12;92139.19;5032930;28;19939;-87
2023/03/06 07:48:30;;;;;;;;;;;;;;;16.58;40.77;92157.03;5039896;28;19928;-87
2023/03/06 07:50:59;;;;;;;;;;;;;;;16.58;41.05;92156.28;5011969;28;19931;-87
2023/03/06 07:53:24;;;;;;;;;;;;;;;16.59;41.28;92153.03;5040305;28;19924;-87
2023/03/06 07:55:50;;;;;;;;;;;;;;;16.59;40.67;92152.28;5027296;28;19932;-85
2023/03/06 07:58:16;;;;;;;;;;;;;;;16.61;41.39;92163.41;5018813;28;19960;-85
2023/03/06 08:00:41;;;;;;;;;;;;;;;16.58;40.70;92157.03;5037606;28;19971;-87
2023/03/06 08:03:07;;;;;;;;;;;;;;;16.58;40.65;92153.56;5072133;28;19984;-89
2023/03/06 08:05:33;;;;;;;;;;;;;;;16.58;40.66;92146.09;5052624;28;20144;-90
2023/03/06 08:07:58;;;;;;;;;;;;;;;16.60;40.78;92153.75;5057816;28;19929;-88
2023/03/06 08:10:23;;;;;;;;;;;;;;;16.59;40.78;92155.75;5055219;28;19967;-87
2023/03/06 08:12:49;;;;;;;;;;;;;;;16.58;40.93;92159.00;5076065;28;19924;-88
2023/03/06 08:15:16;;;;;;;;;;;;;;;16.57;41.03;92157.53;5085659;28;19936;-89
2023/03/06 08:17:41;;;;;;;;;;;;;;;16.58;40.92;92156.28;5062687;28;19935;-90
2023/03/06 08:20:07;;;;;;;;;;;;;;;16.59;41.02;92153.03;5042751;28;19924;-87
2023/03/06 08:22:32;;;;;;;;;;;;;;;16.59;41.06;92150.31;5074323;28;19951;-87
2023/03/06 08:24:58;;;;;;;;;;;;;;;16.61;41.01;92149.78;5067437;28;20109;-89
2023/03/06 08:27:23;;;;;;;;;;;;;;;16.60;40.71;92151.78;5049081;28;19937;-90
2023/03/06 08:29:48;;;;;;;;;;;;;;;16.59;40.92;92155.75;5059458;28;19979;-88
2023/03/06 08:32:13;;;;;;;;;;;;;;;16.61;40.59;92161.41;5065404;28;19932;-89
2023/03/06 08:34:40;;;;;;;;;;;;;;;16.61;40.59;92160.69;5086123;28;19928;-87
2023/03/06 08:37:05;;;;;;;;;;;;;;;16.64;40.98;92154.19;5069638;28;19936;-89
2023/03/06 08:39:30;;;;;;;;;;;;;;;16.61;41.03;92160.69;5056048;28;19928;-86
2023/03/06 08:41:55;;;;;;;;;;;;;;;16.62;40.90;92157.44;5097188;28;19973;-85
2023/03/06 08:44:21;;;;;;;;;;;;;;;16.62;41.04;92162.88;5066741;28;19932;-87
2023/03/06 08:46:46;;;;;;;;;;;;;;;16.62;40.95;92159.44;5053223;28;21234;-84
2023/03/06 08:49:11;;;;;;;;;;;;;;;16.62;40.76;92159.44;5053557;28;19948;-85
2023/03/06 08:51:36;;;;;;;;;;;;;;;16.61;41.19;92163.41;5056943;28;19931;-92
2023/03/06 08:54:02;;;;;;;;;;;;;;;16.60;40.86;92159.94;5063273;28;20259;-87
2023/03/06 08:56:28;;;;;;;;;;;;;;;16.59;40.38;92165.94;5054971;28;19935;-86
2023/03/06 08:58:53;;;;;;;;;;;;;;;16.58;40.52;92162.47;5071644;28;19924;-87
2023/03/06 09:01:19;;;;;;;;;;;;;;;16.58;41.10;92159.75;5061524;28;19939;-88
2023/03/06 09:03:45;;;;;;;;;;;;;;;16.62;40.67;92153.97;5042967;28;19929;-86
2023/03/06 09:06:10;;;;;;;;;;;;;;;16.61;40.36;92152.50;5064220;28;20018;-89
2023/03/06 09:08:35;;;;;;;;;;;;;;;16.61;40.77;92158.69;5050657;28;19924;-87
2023/03/06 09:11:01;;;;;;;;;;;;;;;16.62;41.08;92146.53;5023784;28;19928;-87
2023/03/06 09:13:26;;;;;;;;;;;;;;;16.61;40.97;92157.97;5062396;28;19932;-86
2023/03/06 09:15:51;;;;;;;;;;;;;;;16.61;40.58;92163.41;5066414;28;20015;-87
2023/03/06 09:18:17;;;;;;;;;;;;;;;16.59;40.39;92163.94;5047412;28;20374;-87
2023/03/06 09:20:42;;;;;;;;;;;;;;;16.59;40.50;92163.94;5031086;28;19929;-87
2023/03/06 09:23:08;;;;;;;;;;;;;;;16.60;40.71;92156.50;5039572;28;19932;-87
2023/03/06 09:25:34;;;;;;;;;;;;;;;16.59;40.95;92153.03;5054284;28;19970;-88
2023/03/06 09:27:59;;;;;;;;;;;;;;;16.62;41.15;92153.97;5036613;28;19925;-89
2023/03/06 09:30:24;;;;;;;;;;;;;;;16.61;40.49;92149.78;5036483;28;20421;-87
2023/03/06 09:32:49;;;;;;;;;;;;;;;16.61;41.17;92152.50;5057587;28;19924;-89
2023/03/06 09:35:17;;;;;;;;;;;;;;;16.62;40.82;92151.25;5048916;28;19959;-93
2023/03/06 09:37:42;;;;;;;;;;;;;;;16.60;40.80;92156.50;5055874;28;19928;-86
2023/03/06 09:40:12;;;;;;;;;;;;;;;16.61;41.17;92164.16;5055826;28;19925;-88
2023/03/06 09:42:38;;;;;;;;;;;;;;;16.59;41.04;92165.94;5065647;28;19924;-88
2023/03/06 09:45:05;;;;;;;;;;;;;;;16.59;41.04;92172.13;5041213;28;19943;-85
2023/03/06 09:47:36;;;;;;;;;;;;;;;16.60;40.92;92170.88;5052827;28;19975;-87
2023/03/06 09:50:03;;;;;;;;;;;;;;;16.60;40.59;92175.59;5058113;28;20398;-85
2023/03/06 09:52:29;;;;;;;;;;;;;;;16.60;40.59;92179.06;5047684;28;20301;-86
2023/03/06 09:54:54;;;;;;;;;;;;;;;16.61;40.76;92177.78;5064665;28;19928;-87
2023/03/06 09:57:24;;;;;;;;;;;;;;;16.63;40.80;92185.44;5070084;28;20301;-85
2023/03/06 09:59:50;;;;;;;;;;;;;;;16.64;40.82;92186.94;5057951;28;19916;-88
2023/03/06 10:02:25;;;;;;;;;;;;;;;16.61;40.31;92187.97;5046211;28;20366;-87
2023/03/06 10:04:53;;;;;;;;;;;;;;;16.59;40.26;92185.78;5047283;28;19935;-86
2023/03/06 10:07:22;;;;;;;;;;;;;;;16.55;39.25;92182.63;5069125;28;19928;-91
2023/03/06 10:09:50;;;;;;;;;;;;;;;16.54;39.26;92183.88;5091137;28;19924;-85
2023/03/06 10:12:17;;;;;;;;;;;;;;;16.56;39.27;92177.91;5068205;28;19939;-87
2023/03/06 10:14:43;;;;;;;;;;;;;;;16.58;40.10;92170.66;5067361;28;19931;-85
2023/03/06 10:17:15;;;;;;;;;;;;;;;16.60;39.71;92168.13;5037065;28;19928;-85
2023/03/06 10:19:41;;;;;;;;;;;;;;;16.63;40.22;92182.72;5048811;28;19975;-85
2023/03/06 10:22:07;;;;;;;;;;;;;;;16.64;40.27;92176.75;5073923;28;19936;-83
2023/03/06 10:24:51;;;;;;;;;;;;;;;16.63;39.96;92164.38;5049932;28;19928;-83
2023/03/06 10:27:25;;;;;;;;;;;;;;;16.64;39.06;92170.56;5086022;28;19986;-84
2023/03/06 10:29:55;;;;;;;;;;;;;;;16.58;39.13;92165.19;5089073;28;19924;-85
2023/03/06 10:32:20;;;;;;;;;;;;;;;16.60;38.97;92165.41;5054273;28;19924;-84
2023/03/06 10:34:46;;;;;;;;;;;;;;;16.63;39.30;92160.91;5081489;28;20452;-85
2023/03/06 10:37:16;;;;;;;;;;;;;;;16.64;39.03;92165.84;5088474;28;20240;-85
2023/03/06 10:39:41;;;;;;;;;;;;;;;16.65;39.82;92158.41;5070467;28;19954;-88
2023/03/06 10:42:07;;;;;;;;;;;;;;;16.66;39.74;92155.16;5061967;28;19988;-83
2023/03/06 10:44:32;;;;;;;;;;;;;;;16.67;40.07;92164.06;5071783;28;19947;-83
2023/03/06 10:46:57;;;;;;;;;;;;;;;16.66;39.94;92154.41;5084277;28;19928;-84
2023/03/06 10:49:30;;;;;;;;;;;;;;;16.66;40.25;92157.88;5051338;28;19938;-84
2023/03/06 10:51:58;;;;;;;;;;;;;;;16.67;40.26;92161.34;5052043;28;20011;-84
2023/03/06 10:54:24;;;;;;;;;;;;;;;16.67;40.09;92151.13;5072367;28;20341;-83
2023/03/06 10:56:50;;;;;;;;;;;;;;;16.68;40.54;92154.59;5052426;28;19928;-87
2023/03/06 10:59:24;;;;;;;;;;;;;;;16.66;40.14;92159.88;5063697;28;19940;-87
2023/03/06 11:02:18;;;;;;;;;;;;;;;16.66;40.20;92152.41;5057596;28;19990;-81
2023/03/06 11:04:44;;;;;;;;;;;;;;;16.64;40.24;92151.47;5037927;28;19928;-81
2023/03/06 11:07:21;;;;;;;;;;;;;;;16.65;40.37;92145.50;5050110;28;20031;-82
2023/03/06 11:09:55;;;;;;;;;;;;;;;16.68;40.35;92141.69;5066019;28;20062;-83
2023/03/06 11:12:22;;;;;;;;;;;;;;;16.68;40.65;92147.13;5078253;28;19924;-82
2023/03/06 11:15:07;;;;;;;;;;;;;;;16.68;40.33;92138.94;5050111;28;20360;-82
2023/03/06 11:17:33;;;;;;;;;;;;;;;16.70;40.17;92138.41;5067716;28;20018;-82
2023/03/06 11:20:17;;;;;;;;;;;;;;;16.70;40.58;92139.16;5045346;28;20048;-82
2023/03/06 11:22:50;;;;;;;;;;;;;;;16.68;40.78;92135.50;5094480;28;20313;-86
2023/03/06 11:25:16;;;;;;;;;;;;;;;16.68;40.24;92130.03;5052754;28;20350;-85
2023/03/06 11:27:41;;;;;;;;;;;;;;;16.67;40.25;92142.25;5049436;28;19932;-85
2023/03/06 11:30:18;;;;;;;;;;;;;;;16.70;40.13;92141.16;5067644;28;19925;-85
2023/03/06 11:32:49;;;;;;;;;;;;;;;16.68;40.07;92132.75;5038709;28;19943;-88
2023/03/06 11:35:22;;;;;;;;;;;;;;;16.68;40.22;92133.50;5048562;28;20540;-88
2023/03/06 11:37:52;;;;;;;;;;;;;;;16.70;40.43;92128.25;5074072;28;19928;-84
2023/03/06 11:40:18;;;;;;;;;;;;;;;16.71;40.30;92124.25;5069048;28;20370;-83
2023/03/06 11:42:58;;;;;;;;;;;;;;;16.72;40.13;92116.81;5084372;28;20011;-83
2023/03/06 11:45:26;;;;;;;;;;;;;;;16.72;40.26;92112.06;5079452;28;19923;-86
2023/03/06 11:47:53;;;;;;;;;;;;;;;16.74;40.36;92117.00;5092662;28;19967;-82
2023/03/06 11:50:18;;;;;;;;;;;;;;;16.73;40.69;92102.63;5068169;28;19932;-85
2023/03/06 11:52:43;;;;;;;;;;;;;;;16.72;40.50;92098.44;5086421;28;19969;-82
2023/03/06 11:55:11;;;;;;;;;;;;;;;16.70;40.43;92090.03;5091672;28;19931;-83
2023/03/06 11:57:55;;;;;;;;;;;;;;;16.73;40.36;92088.97;5070991;28;20035;-84
2023/03/06 12:00:21;;;;;;;;;;;;;;;16.72;40.33;92086.78;5073078;28;20035;-84
2023/03/06 12:02:52;;;;;;;;;;;;;;;16.72;40.42;92084.06;5069595;28;19925;-83
2023/03/06 12:05:23;;;;;;;;;;;;;;;16.74;40.59;92079.53;5069444;28;19924;-84
2023/03/06 12:08:07;;;;;;;;;;;;;;;16.78;40.23;92085.41;5048136;28;19924;-82
2023/03/06 12:10:44;;;;;;;;;;;;;;;16.76;40.36;92077.00;5081864;28;19932;-87
2023/03/06 12:13:09;;;;;;;;;;;;;;;16.74;38.59;92082.25;5074948;28;19928;-85
2023/03/06 12:15:40;;;;;;;;;;;;;;;16.62;36.66;92075.59;5091909;28;19924;-83
2023/03/06 12:18:25;;;;;;;;;;;;;;;16.47;34.91;92075.41;5093979;28;19939;-84
2023/03/06 12:20:52;;;;;;;;;;;;;;;16.37;35.39;92071.69;5052067;28;20002;-84
2023/03/06 12:23:36;;;;;;;;;;;;;;;16.38;35.27;92079.34;5046979;28;19956;-85
2023/03/06 12:26:07;;;;;;;;;;;;;;;16.43;35.62;92070.31;5081212;28;19925;-83
2023/03/06 12:28:38;;;;;;;;;;;;;;;16.46;35.67;92065.75;5072136;28;19920;-83
2023/03/06 12:31:06;;;;;;;;;;;;;;;16.44;36.18;92065.59;5071284;28;19932;-83
2023/03/06 12:33:31;;;;;;;;;;;;;;;16.45;36.15;92070.50;5068978;28;19919;-82
2023/03/06 12:36:15;;;;;;;;;;;;;;;16.49;36.44;92061.97;5092338;28;19978;-87
2023/03/06 12:38:40;;;;;;;;;;;;;;;16.53;37.32;92064.38;5066083;28;19920;-83
2023/03/06 12:41:15;;;;;;;;;;;;;;;16.54;38.20;92065.84;5073426;28;19931;-85
2023/03/06 12:43:41;;;;;;;;;;;;;;;16.60;37.98;92069.19;5091019;28;19969;-83
2023/03/06 12:46:15;;;;;;;;;;;;;;;16.63;37.73;92059.94;5084056;28;19928;-84